Time;durP1;ratioP1;P1;durP2;ratioP2;P2;SDS_P1;SDS_P2;PMS_P1;PMS_P2;Temp;Humidity;BMP_temperature;BMP_pressure;BME280_temperature;BME280_humidity;BME280_pressure;Samples;Min_cycle;Max_cycle;Signal;HPM_P1;HPM_P2
2023/01/20 00:01:16;;;;;;;;;27.75;25.50;;;;;-146.44;100.00;58906.56;5070499;27;45680;-49
2023/01/20 00:03:43;;;;;;;;;26.50;24.50;;;;;-146.44;100.00;58906.56;5075128;27;45463;-50
2023/01/20 00:06:08;;;;;;;;;26.50;25.50;;;;;-146.44;100.00;58906.56;5075523;27;45600;-50
2023/01/20 00:08:34;;;;;;;;;22.25;21.25;;;;;-146.44;100.00;58906.56;5075503;27;46154;-51
2023/01/20 00:11:04;;;;;;;;;30.25;23.50;;;;;-146.44;100.00;58906.56;5075360;27;45501;-49
2023/01/20 00:13:31;;;;;;;;;25.25;22.00;;;;;-146.44;100.00;58906.56;5074424;28;45742;-49
2023/01/20 00:15:57;;;;;;;;;23.00;22.00;;;;;-146.44;100.00;58906.56;5075335;27;45606;-51
2023/01/20 00:18:22;;;;;;;;;30.25;24.50;;;;;-146.44;100.00;58906.56;5075246;27;45492;-52
2023/01/20 00:20:48;;;;;;;;;21.75;19.50;;;;;-146.44;100.00;58906.56;5075198;27;45513;-50
2023/01/20 00:23:14;;;;;;;;;24.50;24.50;;;;;-146.44;100.00;58906.56;5075282;27;45511;-50
2023/01/20 00:25:40;;;;;;;;;22.75;19.75;;;;;-146.44;100.00;58906.56;5073835;27;45520;-52
2023/01/20 00:28:06;;;;;;;;;26.50;22.50;;;;;-146.44;100.00;58906.56;5073829;27;45546;-52
2023/01/20 00:30:31;;;;;;;;;22.75;21.25;;;;;-146.44;100.00;58906.56;5074159;27;45520;-53
2023/01/20 00:32:58;;;;;;;;;18.00;17.50;;;;;-146.44;100.00;58906.56;5075196;27;45498;-51
2023/01/20 00:35:23;;;;;;;;;20.50;18.50;;;;;-146.44;100.00;58906.56;5073741;27;45580;-50
2023/01/20 00:37:49;;;;;;;;;21.75;18.50;;;;;-146.44;100.00;58906.56;5074386;27;52660;-50
2023/01/20 00:40:14;;;;;;;;;19.75;18.25;;;;;-146.44;100.00;58906.56;5074668;27;45481;-51
2023/01/20 00:42:40;;;;;;;;;18.00;17.00;;;;;-146.44;100.00;58906.56;5075043;27;45501;-50
2023/01/20 00:45:07;;;;;;;;;18.75;16.75;;;;;-146.44;100.00;58906.56;5074702;27;48837;-50
2023/01/20 00:47:33;;;;;;;;;23.50;19.50;;;;;-146.44;100.00;58906.56;5060479;27;46937;-51
2023/01/20 00:49:59;;;;;;;;;22.75;17.00;;;;;-146.44;100.00;58906.56;5074265;27;45784;-50
2023/01/20 00:52:25;;;;;;;;;19.75;18.50;;;;;-146.44;100.00;58906.56;5074494;27;45617;-51
2023/01/20 00:54:51;;;;;;;;;21.00;17.25;;;;;-146.44;100.00;58906.56;5073469;27;45583;-49
2023/01/20 00:57:17;;;;;;;;;18.00;15.50;;;;;-146.44;100.00;58906.56;5074463;27;45516;-50
2023/01/20 00:59:43;;;;;;;;;20.50;18.00;;;;;-146.44;100.00;58906.56;5074478;27;45521;-51
2023/01/20 01:02:09;;;;;;;;;20.25;20.00;;;;;-146.44;100.00;58906.56;5071630;27;45544;-50
2023/01/20 01:04:34;;;;;;;;;19.75;16.25;;;;;-146.44;100.00;58906.56;5073569;27;45649;-52
2023/01/20 01:07:00;;;;;;;;;20.50;19.00;;;;;-146.44;100.00;58906.56;5072653;27;45472;-50
2023/01/20 01:09:25;;;;;;;;;22.50;16.50;;;;;-146.44;100.00;58906.56;5074396;27;45458;-52
2023/01/20 01:11:51;;;;;;;;;18.75;16.50;;;;;-146.44;100.00;58906.56;5073957;27;45450;-52
2023/01/20 01:14:18;;;;;;;;;21.00;18.50;;;;;-146.44;100.00;58906.56;5073971;27;45485;-48
2023/01/20 01:16:43;;;;;;;;;20.25;18.25;;;;;-146.44;100.00;58906.56;5074620;27;45464;-52
2023/01/20 01:19:09;;;;;;;;;22.00;18.25;;;;;-146.44;100.00;58906.56;5074129;27;45574;-48
2023/01/20 01:21:35;;;;;;;;;22.50;21.00;;;;;-146.44;100.00;58906.56;5073254;27;45580;-50
2023/01/20 01:24:00;;;;;;;;;20.00;17.75;;;;;-146.44;100.00;58906.56;5074378;27;45489;-51
2023/01/20 01:26:25;;;;;;;;;21.50;18.75;;;;;-146.44;100.00;58906.56;5073973;27;47011;-47
2023/01/20 01:28:52;;;;;;;;;22.50;21.25;;;;;-146.44;100.00;58906.56;5074530;27;45492;-51
2023/01/20 01:31:20;;;;;;;;;20.00;18.00;;;;;-146.44;100.00;58906.56;5073453;27;45649;-49
2023/01/20 01:33:47;;;;;;;;;22.25;20.50;;;;;-146.44;100.00;58906.56;5074105;27;45461;-52
2023/01/20 01:36:14;;;;;;;;;21.50;20.25;;;;;-146.44;100.00;58906.56;5074018;27;47993;-51
2023/01/20 01:38:40;;;;;;;;;20.50;20.50;;;;;-146.44;100.00;58906.56;5073927;27;45493;-48
2023/01/20 01:41:05;;;;;;;;;22.00;20.50;;;;;-146.44;100.00;58906.56;5073962;27;45474;-49
2023/01/20 01:43:34;;;;;;;;;26.25;24.50;;;;;-146.44;100.00;58906.56;5072591;27;45636;-53
2023/01/20 01:46:00;;;;;;;;;24.00;19.75;;;;;-146.44;100.00;58906.56;5066027;27;46189;-50
2023/01/20 01:48:35;;;;;;;;;22.00;21.25;;;;;-146.44;100.00;58906.56;5062233;27;45501;-48
2023/01/20 01:51:08;;;;;;;;;27.50;22.25;;;;;-146.44;100.00;58906.56;5067429;27;45523;-51
2023/01/20 01:53:40;;;;;;;;;31.25;25.00;;;;;-146.44;100.00;58906.56;5073751;27;45526;-53
2023/01/20 01:56:07;;;;;;;;;26.75;25.75;;;;;-146.44;100.00;58906.56;5072368;27;45481;-51
2023/01/20 01:58:36;;;;;;;;;28.50;24.00;;;;;-146.44;100.00;58906.56;5072619;27;45792;-49
2023/01/20 02:01:02;;;;;;;;;28.75;26.75;;;;;-146.44;100.00;58906.56;5072949;27;45520;-49
2023/01/20 02:03:37;;;;;;;;;27.75;25.75;;;;;-146.44;100.00;58906.56;5073534;27;45632;-49
2023/01/20 02:06:03;;;;;;;;;33.25;24.75;;;;;-146.44;100.00;58906.56;5072782;27;46181;-52
2023/01/20 02:08:28;;;;;;;;;27.75;26.25;;;;;-146.44;100.00;58906.56;5073667;27;45500;-49
2023/01/20 02:10:54;;;;;;;;;26.00;26.00;;;;;-146.44;100.00;58906.56;5073819;27;45490;-50
2023/01/20 02:13:19;;;;;;;;;31.25;28.00;;;;;-146.44;100.00;58906.56;5073761;27;45466;-50
2023/01/20 02:16:03;;;;;;;;;30.25;27.50;;;;;-146.44;100.00;58906.56;5073483;28;45940;-49
2023/01/20 02:18:37;;;;;;;;;28.00;24.50;;;;;-146.44;100.00;58906.56;5069961;27;45609;-50
2023/01/20 02:21:12;;;;;;;;;30.75;27.75;;;;;-146.44;100.00;58906.56;5065767;28;45470;-49
2023/01/20 02:24:10;;;;;;;;;31.75;29.00;;;;;-146.44;100.00;58906.56;5063553;27;45427;-50
2023/01/20 02:26:57;;;;;;;;;32.75;30.00;;;;;-146.44;100.00;58906.56;5057256;27;46413;-50
2023/01/20 02:29:57;;;;;;;;;33.75;33.25;;;;;-146.44;100.00;58906.56;5071392;27;45559;-50
2023/01/20 02:32:42;;;;;;;;;29.50;25.75;;;;;-146.44;100.00;58906.56;5049334;27;45610;-51
2023/01/20 02:35:28;;;;;;;;;34.25;29.50;;;;;-146.44;100.00;58906.56;5071549;27;45454;-51
2023/01/20 02:38:35;;;;;;;;;31.50;29.50;;;;;-146.44;100.00;58906.56;5072082;27;46038;-48
2023/01/20 02:41:06;;;;;;;;;30.00;30.00;;;;;-146.44;100.00;58906.56;5063392;28;45493;-53
2023/01/20 02:43:43;;;;;;;;;34.50;30.25;;;;;-146.44;100.00;58906.56;5072258;27;45579;-48
2023/01/20 02:46:19;;;;;;;;;32.75;28.00;;;;;-146.44;100.00;58906.56;5070685;27;45483;-47
2023/01/20 02:48:57;;;;;;;;;29.50;23.50;;;;;-146.44;100.00;58906.56;5072859;27;45495;-47
2023/01/20 02:51:27;;;;;;;;;29.50;26.75;;;;;-146.44;100.00;58906.56;5071669;27;45448;-52
2023/01/20 02:54:00;;;;;;;;;27.50;27.00;;;;;-146.44;100.00;58906.56;5072001;27;45528;-52
2023/01/20 02:56:28;;;;;;;;;23.50;22.75;;;;;-146.44;100.00;58906.56;5069131;27;45548;-52
2023/01/20 02:59:16;;;;;;;;;26.75;25.00;;;;;-146.44;100.00;58906.56;5071394;27;45497;-52
2023/01/20 03:01:49;;;;;;;;;27.00;21.75;;;;;-146.44;100.00;58906.56;5070271;27;45462;-53
2023/01/20 03:04:19;;;;;;;;;29.25;24.25;;;;;-146.44;100.00;58906.56;5072065;27;45535;-48
2023/01/20 03:06:54;;;;;;;;;20.75;18.25;;;;;-146.44;100.00;58906.56;5061728;27;45677;-52
2023/01/20 03:09:26;;;;;;;;;30.25;24.25;;;;;-146.44;100.00;58906.56;5069943;27;45583;-48
2023/01/20 03:12:08;;;;;;;;;28.00;21.50;;;;;-146.44;100.00;58906.56;5071718;27;45436;-49
2023/01/20 03:14:33;;;;;;;;;21.50;20.50;;;;;-146.44;100.00;58906.56;5072110;28;45500;-52
2023/01/20 03:17:00;;;;;;;;;24.75;23.25;;;;;-146.44;100.00;58906.56;5069532;28;45465;-49
2023/01/20 03:19:26;;;;;;;;;25.00;20.75;;;;;-146.44;100.00;58906.56;5067275;27;45508;-49
2023/01/20 03:21:51;;;;;;;;;21.00;20.50;;;;;-146.44;100.00;58906.56;5070568;27;45815;-49
2023/01/20 03:24:17;;;;;;;;;28.25;21.00;;;;;-146.44;100.00;58906.56;5071595;27;45488;-52
2023/01/20 03:26:42;;;;;;;;;20.50;20.50;;;;;-146.44;100.00;58906.56;5063016;27;45521;-52
2023/01/20 03:29:14;;;;;;;;;25.00;21.25;;;;;-146.44;100.00;58906.56;5071652;27;46178;-53
2023/01/20 03:31:51;;;;;;;;;26.50;20.50;;;;;-146.44;100.00;58906.56;5072514;27;45505;-52
2023/01/20 03:34:20;;;;;;;;;15.75;15.00;;;;;-146.44;100.00;58906.56;5072538;27;45528;-50
2023/01/20 03:36:46;;;;;;;;;25.00;19.50;;;;;-146.44;100.00;58906.56;5075468;27;45468;-50
2023/01/20 03:39:12;;;;;;;;;22.25;20.50;;;;;-146.44;100.00;58906.56;5075628;27;46182;-48
2023/01/20 03:41:46;;;;;;;;;23.75;21.50;;;;;-146.44;100.00;58906.56;5075812;27;45499;-49
2023/01/20 03:44:31;;;;;;;;;19.25;18.75;;;;;-146.44;100.00;58906.56;5076048;27;45457;-51
2023/01/20 03:47:12;;;;;;;;;26.25;22.75;;;;;-146.44;100.00;58906.56;5075857;27;45418;-50
2023/01/20 03:49:53;;;;;;;;;27.50;24.25;;;;;-146.44;100.00;58906.56;5075626;27;46075;-52
2023/01/20 03:52:29;;;;;;;;;28.75;23.75;;;;;-146.44;100.00;58906.56;5075736;27;45598;-50
2023/01/20 03:55:03;;;;;;;;;27.50;24.50;;;;;-146.44;100.00;58906.56;5074090;28;45502;-49
2023/01/20 03:57:35;;;;;;;;;23.00;21.25;;;;;-146.44;100.00;58906.56;5071148;27;45625;-49
2023/01/20 04:00:05;;;;;;;;;22.75;18.25;;;;;-146.44;100.00;58906.56;5070811;27;45809;-51
2023/01/20 04:02:32;;;;;;;;;23.25;19.75;;;;;-146.44;100.00;58906.56;5075172;27;45640;-51
2023/01/20 04:04:59;;;;;;;;;21.25;20.25;;;;;-146.44;100.00;58906.56;5075236;27;45570;-52
2023/01/20 04:07:25;;;;;;;;;20.00;19.25;;;;;-146.44;100.00;58906.56;5075576;27;45402;-51
2023/01/20 04:09:54;;;;;;;;;20.75;19.75;;;;;-146.44;100.00;58906.56;5075492;27;45553;-51
2023/01/20 04:12:20;;;;;;;;;21.00;15.50;;;;;-146.44;100.00;58906.56;5075317;27;45524;-49
2023/01/20 04:14:45;;;;;;;;;15.25;15.25;;;;;-146.44;100.00;58906.56;5075506;27;45556;-46
2023/01/20 04:17:11;;;;;;;;;20.25;17.25;;;;;-146.44;100.00;58906.56;5075336;27;45554;-51
2023/01/20 04:19:37;;;;;;;;;17.50;15.50;;;;;-146.44;100.00;58906.56;5075006;27;46395;-51
2023/01/20 04:22:26;;;;;;;;;18.00;15.50;;;;;-146.44;100.00;58906.56;5075097;27;45548;-50
2023/01/20 04:25:13;;;;;;;;;17.25;15.75;;;;;-146.44;100.00;58906.56;5075277;27;45414;-48
2023/01/20 04:27:38;;;;;;;;;21.25;18.50;;;;;-146.44;100.00;58906.56;5074016;27;45510;-51
2023/01/20 04:30:04;;;;;;;;;16.50;15.25;;;;;-146.44;100.00;58906.56;5069399;27;51696;-49
2023/01/20 04:32:30;;;;;;;;;19.75;14.75;;;;;-146.44;100.00;58906.56;5065923;27;45505;-52
2023/01/20 04:34:55;;;;;;;;;18.75;17.75;;;;;-146.44;100.00;58906.56;5065091;27;45560;-51
2023/01/20 04:37:20;;;;;;;;;18.50;15.75;;;;;-146.44;100.00;58906.56;5074872;27;45560;-52
2023/01/20 04:39:46;;;;;;;;;24.25;20.00;;;;;-146.44;100.00;58906.56;5074781;27;46222;-49
2023/01/20 04:42:11;;;;;;;;;21.75;20.75;;;;;-146.44;100.00;58906.56;5073201;27;45941;-51
2023/01/20 04:44:36;;;;;;;;;23.25;21.00;;;;;-146.44;100.00;58906.56;5075153;28;45419;-50
2023/01/20 04:47:02;;;;;;;;;19.25;19.25;;;;;-146.44;100.00;58906.56;5073202;27;45696;-52
2023/01/20 04:49:27;;;;;;;;;23.50;20.25;;;;;-146.44;100.00;58906.56;5073175;27;46181;-51
2023/01/20 04:51:52;;;;;;;;;20.50;17.25;;;;;-146.44;100.00;58906.56;5074542;27;45376;-51
2023/01/20 04:54:18;;;;;;;;;20.75;18.75;;;;;-146.44;100.00;58906.56;5074844;27;45560;-51
2023/01/20 04:56:44;;;;;;;;;28.00;22.25;;;;;-146.44;100.00;58906.56;5073799;27;45644;-49
2023/01/20 04:59:09;;;;;;;;;22.50;19.50;;;;;-146.44;100.00;58906.56;5058666;28;45563;-53
2023/01/20 05:01:34;;;;;;;;;21.75;19.25;;;;;-146.44;100.00;58906.56;5074556;27;45437;-48
2023/01/20 05:04:00;;;;;;;;;19.75;18.50;;;;;-146.44;100.00;58906.56;5074130;28;45496;-49
2023/01/20 05:06:25;;;;;;;;;20.50;16.50;;;;;-146.44;100.00;58906.56;5073314;27;45424;-52
2023/01/20 05:08:50;;;;;;;;;22.50;19.75;;;;;-146.44;100.00;58906.56;5074311;27;45426;-47
2023/01/20 05:11:16;;;;;;;;;28.00;23.00;;;;;-146.44;100.00;58906.56;5074593;27;45433;-51
2023/01/20 05:13:41;;;;;;;;;23.50;21.75;;;;;-146.44;100.00;58906.56;5074630;27;45464;-53
2023/01/20 05:16:08;;;;;;;;;21.50;21.50;;;;;-146.44;100.00;58906.56;5074286;27;45521;-51
2023/01/20 05:18:34;;;;;;;;;29.50;24.50;;;;;-146.44;100.00;58906.56;5074121;27;46180;-48
2023/01/20 05:21:01;;;;;;;;;25.50;24.00;;;;;-146.44;100.00;58906.56;5072682;27;45457;-51
2023/01/20 05:23:26;;;;;;;;;20.00;20.00;;;;;-146.44;100.00;58906.56;5074272;28;45571;-50
2023/01/20 05:25:52;;;;;;;;;20.50;20.50;;;;;-146.44;100.00;58906.56;5072726;27;45467;-53
2023/01/20 05:28:18;;;;;;;;;24.00;23.50;;;;;-146.44;100.00;58906.56;5073041;27;46014;-50
2023/01/20 05:30:44;;;;;;;;;21.25;21.25;;;;;-146.44;100.00;58906.56;5074067;27;45522;-48
2023/01/20 05:33:09;;;;;;;;;26.75;20.00;;;;;-146.44;100.00;58906.56;5074234;28;45488;-49
2023/01/20 05:35:36;;;;;;;;;23.75;20.25;;;;;-146.44;100.00;58906.56;5073015;27;45489;-51
2023/01/20 05:38:02;;;;;;;;;25.00;23.50;;;;;-146.44;100.00;58906.56;5073877;27;45464;-50
2023/01/20 05:40:27;;;;;;;;;24.25;23.00;;;;;-146.44;100.00;58906.56;5067716;27;45672;-50
2023/01/20 05:42:52;;;;;;;;;22.50;21.75;;;;;-146.44;100.00;58906.56;5073211;27;45491;-49
2023/01/20 05:45:18;;;;;;;;;26.00;22.00;;;;;-146.44;100.00;58906.56;5069665;28;45600;-51
2023/01/20 05:47:43;;;;;;;;;27.00;24.75;;;;;-146.44;100.00;58906.56;5063108;27;46169;-51
2023/01/20 05:50:09;;;;;;;;;23.75;21.50;;;;;-146.44;100.00;58906.56;5072680;27;45495;-51
2023/01/20 05:52:34;;;;;;;;;20.00;18.25;;;;;-146.44;100.00;58906.56;5072642;27;45481;-53
2023/01/20 05:55:00;;;;;;;;;25.50;24.25;;;;;-146.44;100.00;58906.56;5073935;27;45545;-49
2023/01/20 05:57:25;;;;;;;;;25.50;22.00;;;;;-146.44;100.00;58906.56;5071442;27;50710;-54
2023/01/20 05:59:51;;;;;;;;;33.50;26.25;;;;;-146.44;100.00;58906.56;5071598;27;45918;-49
2023/01/20 06:02:18;;;;;;;;;22.25;20.00;;;;;-146.44;100.00;58906.56;5073832;27;45518;-52
2023/01/20 06:04:45;;;;;;;;;30.25;24.25;;;;;-146.44;100.00;58906.56;5073819;27;45555;-51
2023/01/20 06:07:10;;;;;;;;;25.00;20.50;;;;;-146.44;100.00;58906.56;5073349;27;45520;-51
2023/01/20 06:09:35;;;;;;;;;24.50;22.25;;;;;-146.44;100.00;58906.56;5073536;27;45436;-47
2023/01/20 06:12:01;;;;;;;;;30.00;26.25;;;;;-146.44;100.00;58906.56;5073521;27;45529;-49
2023/01/20 06:14:26;;;;;;;;;27.75;25.75;;;;;-146.44;100.00;58906.56;5073340;27;45564;-50
2023/01/20 06:16:51;;;;;;;;;20.00;16.50;;;;;-146.44;100.00;58906.56;5073386;27;45453;-50
2023/01/20 06:19:16;;;;;;;;;26.50;24.50;;;;;-146.44;100.00;58906.56;5073278;27;45548;-51
2023/01/20 06:21:42;;;;;;;;;28.00;25.75;;;;;-146.44;100.00;58906.56;5073493;27;45487;-50
2023/01/20 06:24:07;;;;;;;;;28.75;22.00;;;;;-146.44;100.00;58906.56;5073345;27;45663;-47
2023/01/20 06:26:33;;;;;;;;;29.50;25.50;;;;;-146.44;100.00;58906.56;5072413;27;45526;-53
2023/01/20 06:29:00;;;;;;;;;26.25;24.00;;;;;-146.44;100.00;58906.56;5071373;27;45572;-52
2023/01/20 06:31:27;;;;;;;;;24.00;21.25;;;;;-146.44;100.00;58906.56;5070960;27;45640;-49
2023/01/20 06:33:53;;;;;;;;;30.75;28.25;;;;;-146.44;100.00;58906.56;5073795;27;45795;-49
2023/01/20 06:36:18;;;;;;;;;28.25;23.75;;;;;-146.44;100.00;58906.56;5073646;27;46213;-51
2023/01/20 06:38:49;;;;;;;;;31.25;29.50;;;;;-146.44;100.00;58906.56;5073546;27;45436;-50
2023/01/20 06:41:16;;;;;;;;;26.50;23.25;;;;;-146.44;100.00;58906.56;5075064;27;45459;-51
2023/01/20 06:43:41;;;;;;;;;30.50;23.50;;;;;-146.44;100.00;58906.56;5067252;27;45543;-51
2023/01/20 06:46:10;;;;;;;;;25.75;24.00;;;;;-146.44;100.00;58906.56;5073545;27;46244;-53
2023/01/20 06:48:35;;;;;;;;;28.75;23.25;;;;;-146.44;100.00;58906.56;5073243;27;45462;-51
2023/01/20 06:51:03;;;;;;;;;28.25;28.25;;;;;-146.44;100.00;58906.56;5073514;27;45441;-49
2023/01/20 06:53:29;;;;;;;;;28.25;24.25;;;;;-146.44;100.00;58906.56;5071753;27;45492;-51
2023/01/20 06:55:56;;;;;;;;;28.25;24.25;;;;;-146.44;100.00;58906.56;5071668;27;45588;-52
2023/01/20 06:58:26;;;;;;;;;28.75;25.00;;;;;-146.44;100.00;58906.56;5062026;27;45517;-51
2023/01/20 07:00:52;;;;;;;;;25.75;23.00;;;;;-146.44;100.00;58906.56;5068319;28;45491;-51
2023/01/20 07:03:18;;;;;;;;;32.00;27.75;;;;;-146.44;100.00;58906.56;5062201;27;45490;-52
2023/01/20 07:05:43;;;;;;;;;28.50;27.00;;;;;-146.44;100.00;58906.56;5055338;28;45642;-53
2023/01/20 07:08:09;;;;;;;;;28.75;25.25;;;;;-146.44;100.00;58906.56;5072702;27;45553;-53
2023/01/20 07:10:35;;;;;;;;;31.25;29.00;;;;;-146.44;100.00;58906.56;5070984;27;45556;-56
2023/01/20 07:13:00;;;;;;;;;33.25;26.25;;;;;-146.44;100.00;58906.56;5075247;27;45636;-55
2023/01/20 07:15:26;;;;;;;;;31.00;29.25;;;;;-146.44;100.00;58906.56;5076120;27;45916;-56
2023/01/20 07:17:51;;;;;;;;;34.75;27.50;;;;;-146.44;100.00;58906.56;5076111;27;45481;-51
2023/01/20 07:20:16;;;;;;;;;34.00;27.00;;;;;-146.44;100.00;58906.56;5076065;27;45411;-57
2023/01/20 07:22:42;;;;;;;;;29.75;28.00;;;;;-146.44;100.00;58906.56;5074733;27;46193;-55
2023/01/20 07:25:07;;;;;;;;;35.00;30.50;;;;;-146.44;100.00;58906.56;5076164;27;45900;-54
2023/01/20 07:27:33;;;;;;;;;33.50;27.00;;;;;-146.44;100.00;58906.56;5072555;27;45504;-55
2023/01/20 07:29:58;;;;;;;;;36.50;31.25;;;;;-146.44;100.00;58906.56;5075284;27;45519;-56
2023/01/20 07:32:23;;;;;;;;;28.00;25.25;;;;;-146.44;100.00;58906.56;5067535;27;45570;-57
2023/01/20 07:34:49;;;;;;;;;33.75;31.50;;;;;-146.44;100.00;58906.56;5067771;27;47300;-54
2023/01/20 07:37:14;;;;;;;;;30.75;28.25;;;;;-146.44;100.00;58906.56;5075519;27;45492;-51
2023/01/20 07:39:41;;;;;;;;;32.50;30.50;;;;;-146.44;100.00;58906.56;5075715;27;45454;-55
2023/01/20 07:42:06;;;;;;;;;28.50;27.75;;;;;-146.44;100.00;58906.56;5075303;27;45623;-56
2023/01/20 07:44:31;;;;;;;;;30.25;29.25;;;;;-146.44;100.00;58906.56;5076189;27;45527;-52
2023/01/20 07:46:57;;;;;;;;;35.50;32.75;;;;;-146.44;100.00;58906.56;5075966;28;45466;-54
2023/01/20 07:49:22;;;;;;;;;32.75;31.00;;;;;-146.44;100.00;58906.56;5076128;27;45554;-55
2023/01/20 07:51:47;;;;;;;;;31.00;27.25;;;;;-146.44;100.00;58906.56;5073778;27;45477;-56
2023/01/20 07:54:13;;;;;;;;;30.25;28.50;;;;;-146.44;100.00;58906.56;5075850;27;48055;-54
2023/01/20 07:56:38;;;;;;;;;35.00;31.50;;;;;-146.44;100.00;58906.56;5075606;27;45513;-53
2023/01/20 07:59:03;;;;;;;;;32.75;28.00;;;;;-146.44;100.00;58906.56;5061649;27;45479;-52
2023/01/20 08:01:31;;;;;;;;;38.25;30.00;;;;;-146.44;100.00;58906.56;5075954;27;45576;-52
2023/01/20 08:03:59;;;;;;;;;28.00;26.00;;;;;-146.44;100.00;58906.56;5073715;27;46373;-57
2023/01/20 08:06:25;;;;;;;;;25.00;25.00;;;;;-146.44;100.00;58906.56;5074931;27;45482;-55
2023/01/20 08:08:51;;;;;;;;;31.25;27.50;;;;;-146.44;100.00;58906.56;5074865;28;45586;-52
2023/01/20 08:11:19;;;;;;;;;27.25;25.50;;;;;-146.44;100.00;58906.56;5074700;27;45562;-57
2023/01/20 08:13:45;;;;;;;;;27.50;24.50;;;;;-146.44;100.00;58906.56;5074612;27;46217;-53
2023/01/20 08:16:12;;;;;;;;;31.00;27.00;;;;;-146.44;100.00;58906.56;5060240;27;45493;-57
2023/01/20 08:18:38;;;;;;;;;28.75;27.25;;;;;-146.44;100.00;58906.56;5074651;27;45447;-56
2023/01/20 08:21:06;;;;;;;;;30.50;30.00;;;;;-146.44;100.00;58906.56;5072540;27;45438;-55
2023/01/20 08:23:33;;;;;;;;;34.25;28.00;;;;;-146.44;100.00;58906.56;5073953;27;46061;-54
2023/01/20 08:26:01;;;;;;;;;29.75;27.75;;;;;-146.44;100.00;58906.56;5074354;27;45449;-57
2023/01/20 08:28:26;;;;;;;;;28.75;24.50;;;;;-146.44;100.00;58906.56;5074632;27;45480;-53
2023/01/20 08:30:52;;;;;;;;;26.50;25.50;;;;;-146.44;100.00;58906.56;5074644;27;45671;-56
2023/01/20 08:33:17;;;;;;;;;35.00;24.75;;;;;-146.44;100.00;58906.56;5074093;27;48239;-57
2023/01/20 08:35:43;;;;;;;;;26.75;25.00;;;;;-146.44;100.00;58906.56;5074366;27;45528;-55
2023/01/20 08:38:08;;;;;;;;;30.25;27.25;;;;;-146.44;100.00;58906.56;5072736;27;45458;-55
2023/01/20 08:40:34;;;;;;;;;27.25;25.25;;;;;-146.44;100.00;58906.56;5074409;27;45675;-57
2023/01/20 08:42:59;;;;;;;;;27.00;23.50;;;;;-146.44;100.00;58906.56;5073927;27;46223;-52
2023/01/20 08:45:25;;;;;;;;;30.25;28.75;;;;;-146.44;100.00;58906.56;5074221;27;45501;-55
2023/01/20 08:47:50;;;;;;;;;23.50;20.25;;;;;-146.44;100.00;58906.56;5074082;27;45539;-57
2023/01/20 08:50:16;;;;;;;;;24.00;22.50;;;;;-146.44;100.00;58906.56;5074114;27;45387;-52
2023/01/20 08:52:41;;;;;;;;;22.75;21.25;;;;;-146.44;100.00;58906.56;5073196;27;45642;-55
2023/01/20 08:55:08;;;;;;;;;27.75;23.50;;;;;-146.44;100.00;58906.56;5073470;27;45488;-54
2023/01/20 08:57:33;;;;;;;;;24.75;21.25;;;;;-146.44;100.00;58906.56;5069489;27;45544;-53
2023/01/20 08:59:59;;;;;;;;;20.25;20.00;;;;;-146.44;100.00;58906.56;5062739;28;45481;-57
2023/01/20 09:02:24;;;;;;;;;21.00;19.50;;;;;-146.44;100.00;58906.56;5073403;27;45412;-55
2023/01/20 09:04:50;;;;;;;;;24.25;20.25;;;;;-146.44;100.00;58906.56;5029159;27;1259357;-53
2023/01/20 09:07:18;;;;;;;;;16.25;14.25;;;;;-146.44;100.00;58906.56;5072604;27;45478;-54
2023/01/20 09:09:43;;;;;;;;;16.00;14.25;;;;;-146.44;100.00;58906.56;5061577;28;45518;-53
2023/01/20 09:12:09;;;;;;;;;15.00;15.00;;;;;-146.44;100.00;58906.56;5074930;27;46193;-54
2023/01/20 09:14:34;;;;;;;;;17.00;17.00;;;;;-146.44;100.00;58906.56;5074518;27;45577;-54
2023/01/20 09:17:01;;;;;;;;;19.00;16.00;;;;;-146.44;100.00;58906.56;5074853;27;45535;-55
2023/01/20 09:19:27;;;;;;;;;16.00;16.00;;;;;-146.44;100.00;58906.56;5074774;28;45512;-55
2023/01/20 09:21:53;;;;;;;;;15.00;14.00;;;;;-146.44;100.00;58906.56;5074585;27;46464;-52
2023/01/20 09:24:19;;;;;;;;;15.75;15.00;;;;;-146.44;100.00;58906.56;5074566;27;45599;-55
2023/01/20 09:26:44;;;;;;;;;14.75;13.75;;;;;-146.44;100.00;58906.56;5074872;27;45535;-54
2023/01/20 09:29:12;;;;;;;;;19.50;16.50;;;;;-146.44;100.00;58906.56;5074482;28;45641;-57
2023/01/20 09:31:42;;;;;;;;;17.25;17.25;;;;;-146.44;100.00;58906.56;5074171;27;45510;-57
2023/01/20 09:34:08;;;;;;;;;14.00;13.00;;;;;-146.44;100.00;58906.56;5073463;27;45469;-54
2023/01/20 09:36:33;;;;;;;;;16.00;13.25;;;;;-146.44;100.00;58906.56;5074441;27;45469;-51
2023/01/20 09:44:40;;;;;;;;;16.25;15.25;;;;;-146.44;100.00;58906.56;5072710;28;45627;-54
2023/01/20 09:47:23;;;;;;;;;13.75;13.50;;;;;-146.44;100.00;58906.56;5060304;28;45557;-53
2023/01/20 09:55:43;;;;;;;;;18.25;14.50;;;;;-146.44;100.00;58906.56;5074047;28;45507;-54
2023/01/20 09:58:43;;;;;;;;;13.50;13.50;;;;;-146.44;100.00;58906.56;5064617;27;45609;-54
2023/01/20 10:01:41;;;;;;;;;11.75;11.25;;;;;-146.44;100.00;58906.56;5073650;27;45588;-54
2023/01/20 10:04:16;;;;;;;;;15.75;13.25;;;;;-146.44;100.00;58906.56;5073598;27;45587;-56
2023/01/20 10:06:43;;;;;;;;;15.00;13.00;;;;;-146.44;100.00;58906.56;5073626;28;45549;-55
2023/01/20 10:09:16;;;;;;;;;16.25;14.75;;;;;-146.44;100.00;58906.56;5073699;27;45554;-53
2023/01/20 10:11:45;;;;;;;;;14.50;12.25;;;;;-146.44;100.00;58906.56;5073587;27;45750;-57
2023/01/20 10:14:23;;;;;;;;;16.00;13.50;;;;;-146.44;100.00;58906.56;5071855;27;46551;-56
2023/01/20 10:16:48;;;;;;;;;15.25;12.50;;;;;-146.44;100.00;58906.56;5073494;27;45499;-54
2023/01/20 10:19:26;;;;;;;;;12.00;11.25;;;;;-146.44;100.00;58906.56;5073289;27;45440;-54
2023/01/20 10:22:10;;;;;;;;;10.25;10.25;;;;;-146.44;100.00;58906.56;5073875;27;45488;-54
2023/01/20 10:25:05;;;;;;;;;10.00;10.00;;;;;-146.44;100.00;58906.56;5073236;27;46057;-55
2023/01/20 10:27:34;;;;;;;;;13.00;11.00;;;;;-146.44;100.00;58906.56;5070458;28;45593;-52
2023/01/20 10:30:10;;;;;;;;;11.25;11.25;;;;;-146.44;100.00;58906.56;5073375;27;45524;-57
2023/01/20 10:32:40;;;;;;;;;10.75;10.25;;;;;-146.44;100.00;58906.56;5073625;27;45583;-53
2023/01/20 10:35:08;;;;;;;;;10.00;9.50;;;;;-146.44;100.00;58906.56;5058933;27;46440;-53
2023/01/20 10:37:34;;;;;;;;;11.25;11.25;;;;;-146.44;100.00;58906.56;5072479;27;45492;-52
2023/01/20 10:40:26;;;;;;;;;10.75;10.00;;;;;-146.44;100.00;58906.56;5073428;27;45578;-57
2023/01/20 10:42:56;;;;;;;;;7.50;7.50;;;;;-146.44;100.00;58906.56;5073269;27;45502;-52
2023/01/20 10:45:45;;;;;;;;;12.50;9.50;;;;;-146.44;100.00;58906.56;5071520;27;45670;-53
2023/01/20 10:48:39;;;;;;;;;9.50;9.00;;;;;-146.44;100.00;58906.56;5073034;27;45535;-54
2023/01/20 10:51:16;;;;;;;;;8.00;8.00;;;;;-146.44;100.00;58906.56;5073005;27;45458;-53
2023/01/20 10:53:57;;;;;;;;;11.25;10.25;;;;;-146.44;100.00;58906.56;5073252;27;45492;-56
2023/01/20 10:56:42;;;;;;;;;11.00;10.00;;;;;-146.44;100.00;58906.56;5073164;27;45608;-55
2023/01/20 10:59:13;;;;;;;;;12.00;8.00;;;;;-146.44;100.00;58906.56;5070659;28;45476;-53
2023/01/20 11:01:39;;;;;;;;;11.50;10.00;;;;;-146.44;100.00;58906.56;5073340;27;45467;-56
2023/01/20 11:04:04;;;;;;;;;10.50;10.00;;;;;-146.44;100.00;58906.56;5072664;27;45531;-54
2023/01/20 11:06:31;;;;;;;;;7.50;7.25;;;;;-146.44;100.00;58906.56;5072819;28;46028;-55
2023/01/20 11:09:12;;;;;;;;;13.50;10.00;;;;;-146.44;100.00;58906.56;5072883;27;45517;-56
2023/01/20 11:11:37;;;;;;;;;11.75;10.75;;;;;-146.44;100.00;58906.56;5073150;27;45430;-58
2023/01/20 11:14:03;;;;;;;;;11.25;10.75;;;;;-146.44;100.00;58906.56;5070131;28;45508;-55